sensor_id;sensor_type;location;lat;lon;timestamp;pressure;altitude;pressure_sealevel;temperature;humidity
48563;BME280;34981;49.104;11.396;2022-08-19T00:01:50;95051.72;;;21.01;81.76
48563;BME280;34981;49.104;11.396;2022-08-19T00:04:29;95048.50;;;20.95;82.36
48563;BME280;34981;49.104;11.396;2022-08-19T00:08:32;95055.53;;;20.96;82.47
48563;BME280;34981;49.104;11.396;2022-08-19T00:10:59;95048.03;;;20.93;82.92
48563;BME280;34981;49.104;11.396;2022-08-19T00:13:26;95042.94;;;20.91;83.13
48563;BME280;34981;49.104;11.396;2022-08-19T00:15:55;95035.19;;;20.93;82.75
48563;BME280;34981;49.104;11.396;2022-08-19T00:18:22;95038.63;;;20.90;82.81
48563;BME280;34981;49.104;11.396;2022-08-19T00:20:49;95046.47;;;20.92;83.36
48563;BME280;34981;49.104;11.396;2022-08-19T00:23:16;95046.00;;;20.90;83.73
48563;BME280;34981;49.104;11.396;2022-08-19T00:25:44;95051.31;;;20.83;84.84
48563;BME280;34981;49.104;11.396;2022-08-19T00:28:14;95047.38;;;20.80;85.19
48563;BME280;34981;49.104;11.396;2022-08-19T00:30:41;95045.00;;;20.79;84.83
48563;BME280;34981;49.104;11.396;2022-08-19T00:33:08;95053.47;;;20.74;85.24
48563;BME280;34981;49.104;11.396;2022-08-19T00:35:35;95053.38;;;20.70;85.48
48563;BME280;34981;49.104;11.396;2022-08-19T00:38:05;95053.66;;;20.65;85.65
48563;BME280;34981;49.104;11.396;2022-08-19T00:40:33;95049.34;;;20.64;85.92
48563;BME280;34981;49.104;11.396;2022-08-19T00:43:00;95051.22;;;20.60;85.95
48563;BME280;34981;49.104;11.396;2022-08-19T00:45:28;95049.69;;;20.63;85.84
48563;BME280;34981;49.104;11.396;2022-08-19T00:48:02;95058.69;;;20.63;86.77
48563;BME280;34981;49.104;11.396;2022-08-19T00:50:40;95052.19;;;20.52;87.69
48563;BME280;34981;49.104;11.396;2022-08-19T00:53:19;95059.94;;;20.50;87.35
48563;BME280;34981;49.104;11.396;2022-08-19T00:55:48;95065.06;;;20.51;87.42
48563;BME280;34981;49.104;11.396;2022-08-19T00:58:18;95063.47;;;20.50;87.34
48563;BME280;34981;49.104;11.396;2022-08-19T01:00:46;95062.22;;;20.48;87.83
48563;BME280;34981;49.104;11.396;2022-08-19T01:03:15;95064.09;;;20.44;87.67
48563;BME280;34981;49.104;11.396;2022-08-19T01:05:45;95066.38;;;20.42;87.38
48563;BME280;34981;49.104;11.396;2022-08-19T01:08:14;95072.69;;;20.46;87.08
48563;BME280;34981;49.104;11.396;2022-08-19T01:10:46;95068.41;;;20.45;87.15
48563;BME280;34981;49.104;11.396;2022-08-19T01:13:14;95064.78;;;20.41;87.47
48563;BME280;34981;49.104;11.396;2022-08-19T01:15:43;95066.72;;;20.40;87.36
48563;BME280;34981;49.104;11.396;2022-08-19T01:18:12;95068.25;;;20.38;87.09
48563;BME280;34981;49.104;11.396;2022-08-19T01:20:40;95080.72;;;20.39;87.25
48563;BME280;34981;49.104;11.396;2022-08-19T01:23:08;95084.50;;;20.34;87.57
48563;BME280;34981;49.104;11.396;2022-08-19T01:25:45;95090.13;;;20.26;88.07
48563;BME280;34981;49.104;11.396;2022-08-19T01:28:20;95087.31;;;20.22;87.91
48563;BME280;34981;49.104;11.396;2022-08-19T01:31:00;95083.78;;;20.21;87.56
48563;BME280;34981;49.104;11.396;2022-08-19T01:33:33;95082.66;;;20.23;87.30
48563;BME280;34981;49.104;11.396;2022-08-19T01:36:08;95096.03;;;20.28;87.58
48563;BME280;34981;49.104;11.396;2022-08-19T01:38:37;95089.88;;;20.31;87.30
48563;BME280;34981;49.104;11.396;2022-08-19T01:41:11;95103.06;;;20.29;88.25
48563;BME280;34981;49.104;11.396;2022-08-19T01:43:38;95108.53;;;20.29;88.24
48563;BME280;34981;49.104;11.396;2022-08-19T01:46:25;95108.53;;;20.29;87.71
48563;BME280;34981;49.104;11.396;2022-08-19T01:48:52;95117.16;;;20.31;87.80
48563;BME280;34981;49.104;11.396;2022-08-19T01:51:19;95107.81;;;20.32;87.70
48563;BME280;34981;49.104;11.396;2022-08-19T01:53:47;95105.88;;;20.32;87.53
48563;BME280;34981;49.104;11.396;2022-08-19T01:56:15;95103.06;;;20.29;87.65
48563;BME280;34981;49.104;11.396;2022-08-19T01:58:45;95113.53;;;20.27;87.82
48563;BME280;34981;49.104;11.396;2022-08-19T02:01:14;95119.44;;;20.29;87.86
48563;BME280;34981;49.104;11.396;2022-08-19T02:03:43;95131.84;;;20.26;88.77
48563;BME280;34981;49.104;11.396;2022-08-19T02:06:10;95128.78;;;20.28;87.98
48563;BME280;34981;49.104;11.396;2022-08-19T02:08:37;95145.22;;;20.31;87.96
48563;BME280;34981;49.104;11.396;2022-08-19T02:11:04;95150.69;;;20.31;88.37
48563;BME280;34981;49.104;11.396;2022-08-19T02:13:32;95153.78;;;20.30;88.72
48563;BME280;34981;49.104;11.396;2022-08-19T02:16:01;95149.03;;;20.27;89.08
48563;BME280;34981;49.104;11.396;2022-08-19T02:18:30;95152.88;;;20.26;88.77
48563;BME280;34981;49.104;11.396;2022-08-19T02:20:57;95147.44;;;20.26;88.31
48563;BME280;34981;49.104;11.396;2022-08-19T02:23:24;95151.22;;;20.21;88.48
48563;BME280;34981;49.104;11.396;2022-08-19T02:25:51;95139.97;;;20.23;88.60
48563;BME280;34981;49.104;11.396;2022-08-19T02:28:18;95140.38;;;20.25;88.36
48563;BME280;34981;49.104;11.396;2022-08-19T02:30:46;95147.44;;;20.26;88.03
48563;BME280;34981;49.104;11.396;2022-08-19T02:33:13;95141.97;;;20.26;88.23
48563;BME280;34981;49.104;11.396;2022-08-19T02:35:41;95141.56;;;20.24;88.24
48563;BME280;34981;49.104;11.396;2022-08-19T02:38:09;95138.03;;;20.23;88.52
48563;BME280;34981;49.104;11.396;2022-08-19T02:41:02;95132.13;;;20.21;88.93
48563;BME280;34981;49.104;11.396;2022-08-19T02:43:30;95124.28;;;20.19;88.64
48563;BME280;34981;49.104;11.396;2022-08-19T02:46:00;95122.00;;;20.21;88.65
48563;BME280;34981;49.104;11.396;2022-08-19T02:48:29;95122.34;;;20.20;89.05
48563;BME280;34981;49.104;11.396;2022-08-19T02:50:56;95115.22;;;20.15;89.53
48563;BME280;34981;49.104;11.396;2022-08-19T02:53:24;95117.50;;;20.13;89.59
48563;BME280;34981;49.104;11.396;2022-08-19T03:43:01;95068.22;;;19.63;94.46
48563;BME280;34981;49.104;11.396;2022-08-19T03:45:29;95073.41;;;19.68;94.32
48563;BME280;34981;49.104;11.396;2022-08-19T03:47:56;95092.75;;;19.63;94.60
48563;BME280;34981;49.104;11.396;2022-08-19T03:50:23;95099.16;;;19.55;95.67
48563;BME280;34981;49.104;11.396;2022-08-19T03:52:51;95100.41;;;19.57;95.40
48563;BME280;34981;49.104;11.396;2022-08-19T03:55:19;95100.75;;;19.56;95.19
48563;BME280;34981;49.104;11.396;2022-08-19T03:57:46;95109.81;;;19.60;95.30
48563;BME280;34981;49.104;11.396;2022-08-19T04:00:15;95120.72;;;19.60;95.11
48563;BME280;34981;49.104;11.396;2022-08-19T04:02:43;95123.09;;;19.61;94.99
48563;BME280;34981;49.104;11.396;2022-08-19T04:05:28;95127.06;;;19.64;94.72
48563;BME280;34981;49.104;11.396;2022-08-19T04:07:56;95132.06;;;19.62;94.74
48563;BME280;34981;49.104;11.396;2022-08-19T04:10:26;95139.44;;;19.61;94.97
48563;BME280;34981;49.104;11.396;2022-08-19T04:12:55;95130.13;;;19.62;94.40
48563;BME280;34981;49.104;11.396;2022-08-19T04:15:22;95129.00;;;19.63;94.47
48563;BME280;34981;49.104;11.396;2022-08-19T04:17:49;95132.41;;;19.60;94.69
48563;BME280;34981;49.104;11.396;2022-08-19T04:20:16;95134.69;;;19.58;95.15
48563;BME280;34981;49.104;11.396;2022-08-19T04:22:43;95134.34;;;19.60;94.66
48563;BME280;34981;49.104;11.396;2022-08-19T04:25:10;95130.94;;;19.63;94.14
48563;BME280;34981;49.104;11.396;2022-08-19T04:27:38;95130.59;;;19.64;93.42
48563;BME280;34981;49.104;11.396;2022-08-19T04:30:05;95135.59;;;19.62;93.63
48563;BME280;34981;49.104;11.396;2022-08-19T04:32:32;95132.53;;;19.64;93.54
48563;BME280;34981;49.104;11.396;2022-08-19T04:34:59;95152.03;;;19.66;93.30
48563;BME280;34981;49.104;11.396;2022-08-19T04:37:43;95159.78;;;19.64;93.39
48563;BME280;34981;49.104;11.396;2022-08-19T04:40:10;95157.41;;;19.62;93.65
48563;BME280;34981;49.104;11.396;2022-08-19T04:42:56;95160.91;;;19.63;93.68
48563;BME280;34981;49.104;11.396;2022-08-19T04:45:24;95161.59;;;19.60;93.77
48563;BME280;34981;49.104;11.396;2022-08-19T04:47:54;95172.09;;;19.58;94.12
48563;BME280;34981;49.104;11.396;2022-08-19T04:50:25;95178.22;;;19.55;94.32
48563;BME280;34981;49.104;11.396;2022-08-19T04:52:52;95186.06;;;19.56;94.41
48563;BME280;34981;49.104;11.396;2022-08-19T04:55:20;95188.78;;;19.56;94.34
48563;BME280;34981;49.104;11.396;2022-08-19T04:57:47;95185.25;;;19.56;94.73
48563;BME280;34981;49.104;11.396;2022-08-19T05:00:14;95182.53;;;19.56;94.49
48563;BME280;34981;49.104;11.396;2022-08-19T05:02:41;95177.06;;;19.56;93.96
48563;BME280;34981;49.104;11.396;2022-08-19T05:05:09;95172.09;;;19.58;94.11
48563;BME280;34981;49.104;11.396;2022-08-19T05:07:36;95163.91;;;19.58;93.77
48563;BME280;34981;49.104;11.396;2022-08-19T05:10:04;95167.50;;;19.62;93.38
48563;BME280;34981;49.104;11.396;2022-08-19T05:12:32;95168.75;;;19.64;93.20
48563;BME280;34981;49.104;11.396;2022-08-19T05:14:59;95173.41;;;19.64;93.49
48563;BME280;34981;49.104;11.396;2022-08-19T05:17:27;95184.75;;;19.66;93.17
48563;BME280;34981;49.104;11.396;2022-08-19T05:20:00;95189.41;;;19.65;93.51
48563;BME280;34981;49.104;11.396;2022-08-19T05:22:46;95191.81;;;19.67;93.42
48563;BME280;34981;49.104;11.396;2022-08-19T05:25:16;95188.28;;;19.66;93.21
48563;BME280;34981;49.104;11.396;2022-08-19T05:27:45;95181.34;;;19.69;93.05
48563;BME280;34981;49.104;11.396;2022-08-19T05:30:12;95185.22;;;19.68;93.57
48563;BME280;34981;49.104;11.396;2022-08-19T05:32:40;95173.41;;;19.64;94.00
48563;BME280;34981;49.104;11.396;2022-08-19T05:35:07;95183.88;;;19.62;94.08
48563;BME280;34981;49.104;11.396;2022-08-19T05:37:35;95190.00;;;19.59;94.51
48563;BME280;34981;49.104;11.396;2022-08-19T05:40:03;95197.75;;;19.57;94.97
48563;BME280;34981;49.104;11.396;2022-08-19T05:42:30;95201.16;;;19.54;94.85
48563;BME280;34981;49.104;11.396;2022-08-19T05:44:58;95203.09;;;19.53;95.12
48563;BME280;34981;49.104;11.396;2022-08-19T05:47:25;95219.91;;;19.55;94.73
48563;BME280;34981;49.104;11.396;2022-08-19T05:49:52;95203.63;;;19.59;94.62
48563;BME280;34981;49.104;11.396;2022-08-19T05:52:19;95198.88;;;19.56;94.67
48563;BME280;34981;49.104;11.396;2022-08-19T05:54:52;95197.97;;;19.52;95.41
48563;BME280;34981;49.104;11.396;2022-08-19T05:57:22;95192.09;;;19.50;96.37
48563;BME280;34981;49.104;11.396;2022-08-19T05:59:51;95205.25;;;19.48;96.63
48563;BME280;34981;49.104;11.396;2022-08-19T06:02:25;95194.34;;;19.48;96.71
48563;BME280;34981;49.104;11.396;2022-08-19T06:04:52;95193.88;;;19.45;96.85
48563;BME280;34981;49.104;11.396;2022-08-19T06:07:19;95191.47;;;19.44;96.73
48563;BME280;34981;49.104;11.396;2022-08-19T06:09:47;95193.88;;;19.45;97.25
48563;BME280;34981;49.104;11.396;2022-08-19T06:12:27;95192.66;;;19.43;97.43
48563;BME280;34981;49.104;11.396;2022-08-19T06:14:59;95191.84;;;19.42;97.73
48563;BME280;34981;49.104;11.396;2022-08-19T06:17:28;95191.28;;;19.37;97.93
48563;BME280;34981;49.104;11.396;2022-08-19T06:19:57;95190.13;;;19.38;97.90
48563;BME280;34981;49.104;11.396;2022-08-19T06:22:26;95184.69;;;19.38;98.12
48563;BME280;34981;49.104;11.396;2022-08-19T06:24:53;95193.66;;;19.38;98.37
48563;BME280;34981;49.104;11.396;2022-08-19T06:27:21;95188.22;;;19.38;98.69
48563;BME280;34981;49.104;11.396;2022-08-19T06:29:48;95193.41;;;19.43;98.18
48563;BME280;34981;49.104;11.396;2022-08-19T06:32:15;95197.09;;;19.48;97.82
48563;BME280;34981;49.104;11.396;2022-08-19T06:34:43;95195.25;;;19.52;97.56
48563;BME280;34981;49.104;11.396;2022-08-19T06:37:10;95205.91;;;19.44;98.38
48563;BME280;34981;49.104;11.396;2022-08-19T06:39:38;95210.94;;;19.42;98.52
48563;BME280;34981;49.104;11.396;2022-08-19T06:42:06;95207.50;;;19.45;98.38
48563;BME280;34981;49.104;11.396;2022-08-19T06:44:37;95201.25;;;19.45;98.48
48563;BME280;34981;49.104;11.396;2022-08-19T06:47:11;95208.63;;;19.44;98.43
48563;BME280;34981;49.104;11.396;2022-08-19T06:49:49;95212.06;;;19.41;98.75
48563;BME280;34981;49.104;11.396;2022-08-19T06:52:17;95212.75;;;19.38;99.32
48563;BME280;34981;49.104;11.396;2022-08-19T06:54:44;95220.91;;;19.38;99.56
48563;BME280;34981;49.104;11.396;2022-08-19T06:57:24;95223.63;;;19.38;99.42
48563;BME280;34981;49.104;11.396;2022-08-19T06:59:52;95222.50;;;19.39;99.09
48563;BME280;34981;49.104;11.396;2022-08-19T07:02:19;95223.75;;;19.42;98.98
48563;BME280;34981;49.104;11.396;2022-08-19T07:04:47;95222.75;;;19.47;98.82
48563;BME280;34981;49.104;11.396;2022-08-19T07:07:19;95218.09;;;19.47;99.23
48563;BME280;34981;49.104;11.396;2022-08-19T07:09:50;95224.81;;;19.50;98.97
48563;BME280;34981;49.104;11.396;2022-08-19T07:12:30;95222.97;;;19.54;99.45
48563;BME280;34981;49.104;11.396;2022-08-19T07:15:03;95220.25;;;19.54;100.00
48563;BME280;34981;49.104;11.396;2022-08-19T07:17:32;95229.69;;;19.56;100.00
48563;BME280;34981;49.104;11.396;2022-08-19T07:20:01;95213.31;;;19.56;100.00
48563;BME280;34981;49.104;11.396;2022-08-19T07:22:33;95216.03;;;19.56;100.00
48563;BME280;34981;49.104;11.396;2022-08-19T07:25:07;95216.38;;;19.55;100.00
48563;BME280;34981;49.104;11.396;2022-08-19T07:27:35;95223.50;;;19.59;100.00
48563;BME280;34981;49.104;11.396;2022-08-19T07:30:02;95218.06;;;19.59;100.00
48563;BME280;34981;49.104;11.396;2022-08-19T07:32:30;95220.38;;;19.57;100.00
48563;BME280;34981;49.104;11.396;2022-08-19T07:34:58;95205.22;;;19.60;100.00
48563;BME280;34981;49.104;11.396;2022-08-19T07:37:27;95198.63;;;19.61;100.00
48563;BME280;34981;49.104;11.396;2022-08-19T07:39:59;95205.56;;;19.58;100.00
48563;BME280;34981;49.104;11.396;2022-08-19T07:42:27;95198.19;;;19.59;100.00
48563;BME280;34981;49.104;11.396;2022-08-19T07:44:57;95197.50;;;19.62;100.00
48563;BME280;34981;49.104;11.396;2022-08-19T07:47:25;95200.56;;;19.60;100.00
48563;BME280;34981;49.104;11.396;2022-08-19T07:50:16;95205.44;;;19.67;100.00
48563;BME280;34981;49.104;11.396;2022-08-19T07:52:47;95214.41;;;19.67;100.00
48563;BME280;34981;49.104;11.396;2022-08-19T07:55:20;95227.25;;;19.67;100.00
48563;BME280;34981;49.104;11.396;2022-08-19T07:58:08;95227.50;;;19.62;100.00
48563;BME280;34981;49.104;11.396;2022-08-19T08:00:35;95220.91;;;19.63;100.00
48563;BME280;34981;49.104;11.396;2022-08-19T08:03:02;95219.88;;;19.67;100.00
48563;BME280;34981;49.104;11.396;2022-08-19T08:05:30;95217.47;;;19.66;100.00
48563;BME280;34981;49.104;11.396;2022-08-19T08:08:16;95228.38;;;19.66;100.00
48563;BME280;34981;49.104;11.396;2022-08-19T08:10:59;95231.56;;;19.68;100.00
48563;BME280;34981;49.104;11.396;2022-08-19T08:13:26;95219.97;;;19.71;100.00
48563;BME280;34981;49.104;11.396;2022-08-19T08:15:55;95224.72;;;19.74;100.00
48563;BME280;34981;49.104;11.396;2022-08-19T08:18:22;95221.31;;;19.77;100.00
48563;BME280;34981;49.104;11.396;2022-08-19T08:20:54;95223.72;;;19.78;100.00
48563;BME280;34981;49.104;11.396;2022-08-19T08:23:22;95226.31;;;19.75;100.00
48563;BME280;34981;49.104;11.396;2022-08-19T08:25:52;95226.31;;;19.75;100.00
48563;BME280;34981;49.104;11.396;2022-08-19T08:28:21;95227.03;;;19.72;100.00
48563;BME280;34981;49.104;11.396;2022-08-19T08:30:49;95218.84;;;19.72;100.00
48563;BME280;34981;49.104;11.396;2022-08-19T08:33:18;95213.81;;;19.74;100.00
48563;BME280;34981;49.104;11.396;2022-08-19T08:36:06;95214.72;;;19.78;100.00
48563;BME280;34981;49.104;11.396;2022-08-19T08:38:34;95212.00;;;19.78;100.00
48563;BME280;34981;49.104;11.396;2022-08-19T08:41:11;95221.06;;;19.82;100.00
48563;BME280;34981;49.104;11.396;2022-08-19T08:43:48;95216.53;;;19.86;100.00
48563;BME280;34981;49.104;11.396;2022-08-19T08:46:18;95212.63;;;19.87;100.00
48563;BME280;34981;49.104;11.396;2022-08-19T08:51:29;95215.47;;;19.91;100.00
48563;BME280;34981;49.104;11.396;2022-08-19T08:54:01;95219.47;;;19.93;100.00
48563;BME280;34981;49.104;11.396;2022-08-19T08:56:29;95220.00;;;19.99;100.00
48563;BME280;34981;49.104;11.396;2022-08-19T08:58:58;95216.94;;;20.00;100.00
48563;BME280;34981;49.104;11.396;2022-08-19T09:01:27;95214.75;;;20.06;100.00
48563;BME280;34981;49.104;11.396;2022-08-19T09:03:56;95208.78;;;20.16;100.00
48563;BME280;34981;49.104;11.396;2022-08-19T09:06:42;95210.91;;;20.23;100.00
48563;BME280;34981;49.104;11.396;2022-08-19T09:09:21;95211.66;;;20.35;100.00
48563;BME280;34981;49.104;11.396;2022-08-19T09:17:16;95211.34;;;20.52;99.26
48563;BME280;34981;49.104;11.396;2022-08-19T09:19:53;95211.25;;;20.49;98.65
48563;BME280;34981;49.104;11.396;2022-08-19T09:22:21;95211.94;;;20.46;98.77
48563;BME280;34981;49.104;11.396;2022-08-19T09:24:53;95225.16;;;20.44;98.98
48563;BME280;34981;49.104;11.396;2022-08-19T09:27:21;95225.50;;;20.42;98.58
48563;BME280;34981;49.104;11.396;2022-08-19T09:30:11;95225.25;;;20.47;98.84
48563;BME280;34981;49.104;11.396;2022-08-19T09:32:39;95219.19;;;20.54;99.03
48563;BME280;34981;49.104;11.396;2022-08-19T09:35:09;95223.03;;;20.53;97.95
48563;BME280;34981;49.104;11.396;2022-08-19T09:37:36;95219.78;;;20.47;96.90
48563;BME280;34981;49.104;11.396;2022-08-19T09:40:03;95224.03;;;20.33;95.57
48563;BME280;34981;49.104;11.396;2022-08-19T09:42:31;95228.84;;;20.36;95.68
48563;BME280;34981;49.104;11.396;2022-08-19T09:45:01;95223.03;;;20.37;95.52
48563;BME280;34981;49.104;11.396;2022-08-19T09:47:36;95217.22;;;20.39;95.12
48563;BME280;34981;49.104;11.396;2022-08-19T09:50:07;95218.81;;;20.40;95.13
48563;BME280;34981;49.104;11.396;2022-08-19T09:52:36;95224.38;;;20.43;95.38
48563;BME280;34981;49.104;11.396;2022-08-19T09:55:04;95224.03;;;20.45;94.77
48563;BME280;34981;49.104;11.396;2022-08-19T09:57:34;95223.56;;;20.43;94.24
48563;BME280;34981;49.104;11.396;2022-08-19T10:00:03;95225.16;;;20.44;93.92
48563;BME280;34981;49.104;11.396;2022-08-19T10:02:33;95230.38;;;20.49;94.04
48563;BME280;34981;49.104;11.396;2022-08-19T10:05:00;95234.34;;;20.51;93.88
48563;BME280;34981;49.104;11.396;2022-08-19T10:07:52;95241.75;;;20.51;94.08
48563;BME280;34981;49.104;11.396;2022-08-19T10:10:22;95236.44;;;20.42;93.53
48563;BME280;34981;49.104;11.396;2022-08-19T10:12:51;95252.97;;;20.34;93.66
48563;BME280;34981;49.104;11.396;2022-08-19T10:15:18;95253.88;;;20.26;94.07
48563;BME280;34981;49.104;11.396;2022-08-19T10:17:55;95251.16;;;20.26;93.83
48563;BME280;34981;49.104;11.396;2022-08-19T10:20:24;95254.13;;;20.20;93.75
48563;BME280;34981;49.104;11.396;2022-08-19T10:22:51;95265.06;;;20.20;93.55
48563;BME280;34981;49.104;11.396;2022-08-19T10:25:19;95257.81;;;20.12;93.46
48563;BME280;34981;49.104;11.396;2022-08-19T10:27:48;95252.34;;;20.12;94.04
48563;BME280;34981;49.104;11.396;2022-08-19T10:30:17;95251.47;;;20.08;94.32
48563;BME280;34981;49.104;11.396;2022-08-19T10:32:46;95263.00;;;20.17;94.74
48563;BME280;34981;49.104;11.396;2022-08-19T10:35:13;95262.84;;;20.26;94.56
48563;BME280;34981;49.104;11.396;2022-08-19T10:37:47;95254.66;;;20.26;94.31
48563;BME280;34981;49.104;11.396;2022-08-19T10:40:23;95255.00;;;20.25;94.04
48563;BME280;34981;49.104;11.396;2022-08-19T10:42:50;95253.19;;;20.29;94.65
48563;BME280;34981;49.104;11.396;2022-08-19T10:45:18;95255.22;;;20.32;94.40
48563;BME280;34981;49.104;11.396;2022-08-19T10:47:45;95256.50;;;20.34;94.34
48563;BME280;34981;49.104;11.396;2022-08-19T10:50:13;95250.53;;;20.32;94.12
48563;BME280;34981;49.104;11.396;2022-08-19T10:53:02;95248.53;;;20.29;94.23
48563;BME280;34981;49.104;11.396;2022-08-19T10:55:35;95249.75;;;20.32;94.30
48563;BME280;34981;49.104;11.396;2022-08-19T10:58:21;95254.78;;;20.30;94.15
48563;BME280;34981;49.104;11.396;2022-08-19T11:00:53;95258.66;;;20.29;94.58
48563;BME280;34981;49.104;11.396;2022-08-19T11:03:23;95258.53;;;20.25;94.52
48563;BME280;34981;49.104;11.396;2022-08-19T11:06:01;95250.50;;;20.16;95.50
48563;BME280;34981;49.104;11.396;2022-08-19T11:08:28;95254.38;;;20.15;95.64
48563;BME280;34981;49.104;11.396;2022-08-19T11:10:59;95251.88;;;20.10;96.14
48563;BME280;34981;49.104;11.396;2022-08-19T11:13:29;95254.97;;;20.09;96.46
48563;BME280;34981;49.104;11.396;2022-08-19T11:16:00;95251.81;;;20.07;97.11
48563;BME280;34981;49.104;11.396;2022-08-19T11:18:37;95251.34;;;20.05;97.41
48563;BME280;34981;49.104;11.396;2022-08-19T11:21:06;95250.22;;;20.06;97.90
48563;BME280;34981;49.104;11.396;2022-08-19T11:23:33;95251.25;;;20.01;97.98
48563;BME280;34981;49.104;11.396;2022-08-19T11:26:00;95253.41;;;19.96;98.14
48563;BME280;34981;49.104;11.396;2022-08-19T11:28:28;95247.06;;;19.92;99.18
48563;BME280;34981;49.104;11.396;2022-08-19T11:30:55;95243.09;;;19.89;99.45
48563;BME280;34981;49.104;11.396;2022-08-19T11:33:22;95246.97;;;19.88;100.00
48563;BME280;34981;49.104;11.396;2022-08-19T11:35:49;95243.22;;;19.93;100.00
48563;BME280;34981;49.104;11.396;2022-08-19T11:38:17;95242.41;;;19.92;100.00
48563;BME280;34981;49.104;11.396;2022-08-19T11:40:45;95249.47;;;19.93;100.00
48563;BME280;34981;49.104;11.396;2022-08-19T11:43:12;95248.66;;;19.93;100.00
48563;BME280;34981;49.104;11.396;2022-08-19T11:45:39;95245.47;;;19.91;100.00
48563;BME280;34981;49.104;11.396;2022-08-19T11:48:06;95247.31;;;19.87;100.00
48563;BME280;34981;49.104;11.396;2022-08-19T11:50:33;95248.47;;;19.86;100.00
48563;BME280;34981;49.104;11.396;2022-08-19T11:53:00;95246.97;;;19.88;100.00
48563;BME280;34981;49.104;11.396;2022-08-19T11:55:28;95239.16;;;19.87;100.00
48563;BME280;34981;49.104;11.396;2022-08-19T11:57:55;95241.41;;;19.85;100.00
48563;BME280;34981;49.104;11.396;2022-08-19T12:00:22;95233.91;;;19.81;100.00
48563;BME280;34981;49.104;11.396;2022-08-19T12:02:49;95222.56;;;19.79;100.00
48563;BME280;34981;49.104;11.396;2022-08-19T12:05:16;95222.22;;;19.81;100.00
48563;BME280;34981;49.104;11.396;2022-08-19T12:07:44;95221.06;;;19.82;100.00
48563;BME280;34981;49.104;11.396;2022-08-19T12:10:11;95217.75;;;19.89;100.00
48563;BME280;34981;49.104;11.396;2022-08-19T12:12:38;95217.06;;;19.92;100.00
48563;BME280;34981;49.104;11.396;2022-08-19T12:15:09;95211.28;;;19.93;100.00
48563;BME280;34981;49.104;11.396;2022-08-19T12:17:37;95208.19;;;19.95;100.00
48563;BME280;34981;49.104;11.396;2022-08-19T12:20:05;95216.34;;;19.95;100.00
48563;BME280;34981;49.104;11.396;2022-08-19T12:22:36;95215.59;;;19.94;100.00
48563;BME280;34981;49.104;11.396;2022-08-19T12:25:04;95217.63;;;19.97;100.00
48563;BME280;34981;49.104;11.396;2022-08-19T12:27:31;95213.16;;;20.05;100.00
48563;BME280;34981;49.104;11.396;2022-08-19T12:30:08;95217.13;;;20.07;100.00
48563;BME280;34981;49.104;11.396;2022-08-19T12:32:36;95222.31;;;20.12;100.00
48563;BME280;34981;49.104;11.396;2022-08-19T12:35:03;95222.06;;;20.17;100.00
48563;BME280;34981;49.104;11.396;2022-08-19T12:37:31;95230.03;;;20.23;100.00
48563;BME280;34981;49.104;11.396;2022-08-19T12:39:59;95227.03;;;20.28;100.00
48563;BME280;34981;49.104;11.396;2022-08-19T12:42:26;95226.34;;;20.31;100.00
48563;BME280;34981;49.104;11.396;2022-08-19T12:44:53;95224.75;;;20.30;100.00
48563;BME280;34981;49.104;11.396;2022-08-19T12:47:22;95228.41;;;20.34;100.00
48563;BME280;34981;49.104;11.396;2022-08-19T12:49:49;95227.25;;;20.35;100.00
48563;BME280;34981;49.104;11.396;2022-08-19T12:52:22;95230.44;;;20.37;100.00
48563;BME280;34981;49.104;11.396;2022-08-19T12:54:50;95232.22;;;20.45;100.00
48563;BME280;34981;49.104;11.396;2022-08-19T12:57:24;95238.81;;;20.44;100.00
48563;BME280;34981;49.104;11.396;2022-08-19T12:59:59;95240.84;;;20.47;100.00
48563;BME280;34981;49.104;11.396;2022-08-19T13:02:26;95242.41;;;20.48;100.00
48563;BME280;34981;49.104;11.396;2022-08-19T13:04:53;95243.56;;;20.47;100.00
48563;BME280;34981;49.104;11.396;2022-08-19T13:07:20;95247.09;;;20.47;100.00
48563;BME280;34981;49.104;11.396;2022-08-19T13:09:50;95252.13;;;20.45;100.00
48563;BME280;34981;49.104;11.396;2022-08-19T13:12:18;95247.09;;;20.47;100.00
48563;BME280;34981;49.104;11.396;2022-08-19T13:14:50;95246.22;;;20.43;100.00
48563;BME280;34981;49.104;11.396;2022-08-19T13:17:19;95241.97;;;20.46;100.00
48563;BME280;34981;49.104;11.396;2022-08-19T13:19:46;95240.03;;;20.46;100.00
48563;BME280;34981;49.104;11.396;2022-08-19T13:22:13;95239.50;;;20.41;100.00
48563;BME280;34981;49.104;11.396;2022-08-19T13:24:41;95234.50;;;20.43;100.00
48563;BME280;34981;49.104;11.396;2022-08-19T13:27:13;95233.59;;;20.39;100.00
48563;BME280;34981;49.104;11.396;2022-08-19T13:29:40;95233.16;;;20.37;100.00
48563;BME280;34981;49.104;11.396;2022-08-19T13:32:26;95234.31;;;20.36;100.00
48563;BME280;34981;49.104;11.396;2022-08-19T13:35:15;95237.50;;;20.38;100.00
48563;BME280;34981;49.104;11.396;2022-08-19T13:37:43;95241.25;;;20.33;100.00
48563;BME280;34981;49.104;11.396;2022-08-19T13:40:12;95241.25;;;20.33;100.00
48563;BME280;34981;49.104;11.396;2022-08-19T13:42:43;95243.06;;;20.29;100.00
48563;BME280;34981;49.104;11.396;2022-08-19T13:45:15;95244.28;;;20.32;100.00
48563;BME280;34981;49.104;11.396;2022-08-19T13:47:44;95245.56;;;20.34;100.00
48563;BME280;34981;49.104;11.396;2022-08-19T13:50:12;95245.09;;;20.32;100.00
48563;BME280;34981;49.104;11.396;2022-08-19T13:52:40;95235.91;;;20.37;100.00
48563;BME280;34981;49.104;11.396;2022-08-19T13:55:08;95234.97;;;20.33;100.00
48563;BME280;34981;49.104;11.396;2022-08-19T13:57:36;95236.59;;;20.34;100.00
48563;BME280;34981;49.104;11.396;2022-08-19T14:00:10;95234.31;;;20.36;100.00